ブエノスアイレス/エセイサ の空港の天気 - METARとTAF

エセイサ国際空港 ( SAEZ / EZE ) - アルゼンチン ブエノスアイレス州、Ezeiza
飛行場実況気象(Metar)
観測時間11/15 13:00 ART (11/15 16:00 UTC)
風向・風速西南西 6m/s
視程10km以上
天気現象
なし
気温27℃
湿度42%
気圧1009hPa
METARSAEZ 151600Z 24011KT CAVOK 27/13 Q1009 NOSIG
過去の天気等 Google飛行場航空写真 Wunderground天気予報

過去48時間のMETAR

飛行場予報(TAF)
発表時間: 11/15 08:00 ART (11/15 11:00 UTC)
予報対象時間: 15日9時 ART ~ 16日9時 ART
風向・風速西北西 5m/s
視程10km以上
なし
15日11時 ART ~ 15日12時 ART に徐々に
風向・風速南西 5m/s
15日14時 ART ~ 15日16時 ART に徐々に
風向・風速南南西 5m/s
15日23時 ART ~ 16日1時 ART に徐々に
風向・風速南東 8m/s
視程6000m
天気現象
全天の8割程度の雲 雲底高度 300m
全天を覆う雲 雲底高度 1220m
15日23時 ART ~ 16日2時 ART に一時的に
視程4000m
天気現象雷雨
少しの積乱雲 雲底高度 1070m
16日3時 ART ~ 16日5時 ART に徐々に
風向・風速東 8m/s
視程8000m
天気現象
全天を覆う雲 雲底高度 240m
TAF SAEZ 151100Z 1512/1612 29010KT CAVOK TX27/1519Z TN09/1610Z
BECMG 1514/1515 23010KT
BECMG 1517/1519 20010KT
BECMG 1602/1604 14015KT 6000 RA BKN010 OVC040
TEMPO 1602/1605 4000 TSRA FEW035CB
BECMG 1606/1608 09015KT 8000 RA OVC008